Time;durP1;ratioP1;P1;durP2;ratioP2;P2;SDS_P1;SDS_P2;PMS_P1;PMS_P2;Temp;Humidity;BMP_temperature;BMP_pressure;BME280_temperature;BME280_humidity;BME280_pressure;Samples;Min_cycle;Max_cycle;Signal;HPM_P1;HPM_P2
2023/10/22 00:00:42;;;;;;;0.40;0.40;;;;;;;;;;5035407;28;20292;-80
2023/10/22 00:03:07;;;;;;;0.82;0.50;;;;;;;;;;5036524;28;20032;-80
2023/10/22 00:05:32;;;;;;;0.45;0.45;;;;;;;;;;5033635;28;20508;-79
2023/10/22 00:07:58;;;;;;;0.52;0.52;;;;;;;;;;5019685;28;20127;-80
2023/10/22 00:10:23;;;;;;;0.63;0.57;;;;;;;;;;5050014;28;20119;-81
2023/10/22 00:12:48;;;;;;;0.40;0.40;;;;;;;;;;5051782;28;20036;-80
2023/10/22 00:15:14;;;;;;;0.40;0.40;;;;;;;;;;5049951;28;20104;-79
2023/10/22 00:17:41;;;;;;;1.02;0.50;;;;;;;;;;5050058;28;20013;-81
2023/10/22 00:20:07;;;;;;;0.50;0.50;;;;;;;;;;5049705;28;20128;-80
2023/10/22 00:22:33;;;;;;;3.35;0.68;;;;;;;;;;5048626;28;20056;-81
2023/10/22 00:24:58;;;;;;;1.05;0.40;;;;;;;;;;5049424;28;20026;-80
2023/10/22 00:27:23;;;;;;;0.50;0.50;;;;;;;;;;5048721;28;20036;-80
2023/10/22 00:29:48;;;;;;;0.88;0.50;;;;;;;;;;5032730;28;20021;-81
2023/10/22 00:32:14;;;;;;;0.57;0.57;;;;;;;;;;5046657;28;20045;-80
2023/10/22 00:34:39;;;;;;;0.63;0.40;;;;;;;;;;5051555;28;20568;-80
2023/10/22 00:37:05;;;;;;;0.80;0.43;;;;;;;;;;5046003;28;20042;-80
2023/10/22 00:39:30;;;;;;;0.40;0.40;;;;;;;;;;5034467;28;20378;-80
2023/10/22 00:41:56;;;;;;;0.50;0.50;;;;;;;;;;5032312;28;20083;-80
2023/10/22 00:44:21;;;;;;;0.50;0.50;;;;;;;;;;5031540;28;20329;-80
2023/10/22 00:46:47;;;;;;;0.40;0.40;;;;;;;;;;5033795;28;20500;-80
2023/10/22 00:49:13;;;;;;;0.98;0.60;;;;;;;;;;5052538;28;20033;-78
2023/10/22 00:51:38;;;;;;;1.08;0.40;;;;;;;;;;5052333;28;20040;-78
2023/10/22 00:54:04;;;;;;;0.70;0.70;;;;;;;;;;5036266;28;20033;-77
2023/10/22 00:56:30;;;;;;;0.50;0.50;;;;;;;;;;5034038;28;20029;-77
2023/10/22 00:58:56;;;;;;;0.43;0.43;;;;;;;;;;5035458;28;20041;-79
2023/10/22 01:01:21;;;;;;;0.40;0.40;;;;;;;;;;5040181;28;20052;-79
2023/10/22 01:03:46;;;;;;;1.88;0.52;;;;;;;;;;5038362;28;20298;-80
2023/10/22 01:06:13;;;;;;;0.40;0.40;;;;;;;;;;5046350;28;20035;-81
2023/10/22 01:08:41;;;;;;;3.05;0.50;;;;;;;;;;5039728;28;20053;-81
2023/10/22 01:11:07;;;;;;;0.60;0.38;;;;;;;;;;5028558;28;20048;-81
2023/10/22 01:13:33;;;;;;;1.17;0.52;;;;;;;;;;5029803;28;20691;-81
2023/10/22 01:15:58;;;;;;;0.30;0.30;;;;;;;;;;5027097;28;20030;-79
2023/10/22 01:18:24;;;;;;;0.52;0.52;;;;;;;;;;5040336;28;20515;-79
2023/10/22 01:20:50;;;;;;;0.80;0.40;;;;;;;;;;5045931;28;20086;-79
2023/10/22 01:23:15;;;;;;;5.03;0.45;;;;;;;;;;5042751;28;20094;-81
2023/10/22 01:25:40;;;;;;;0.50;0.50;;;;;;;;;;5037214;28;20029;-81
2023/10/22 01:28:06;;;;;;;0.73;0.55;;;;;;;;;;5041636;28;20083;-81
2023/10/22 01:30:31;;;;;;;0.52;0.52;;;;;;;;;;5037502;28;20026;-81
2023/10/22 01:32:56;;;;;;;0.45;0.45;;;;;;;;;;5030476;28;20086;-78
2023/10/22 01:35:22;;;;;;;0.50;0.50;;;;;;;;;;5049203;28;20045;-79
2023/10/22 01:37:47;;;;;;;0.93;0.40;;;;;;;;;;5035223;28;20052;-79
2023/10/22 01:40:13;;;;;;;0.70;0.60;;;;;;;;;;5030578;28;21030;-79
2023/10/22 01:42:39;;;;;;;1.75;0.50;;;;;;;;;;5019436;28;20203;-79
2023/10/22 01:45:06;;;;;;;0.57;0.57;;;;;;;;;;5032856;28;20458;-78
2023/10/22 01:47:31;;;;;;;0.43;0.43;;;;;;;;;;5036306;28;20024;-79
2023/10/22 01:49:57;;;;;;;0.50;0.50;;;;;;;;;;5046325;28;20374;-79
2023/10/22 01:52:23;;;;;;;0.32;0.30;;;;;;;;;;5049418;28;20139;-79
2023/10/22 01:54:49;;;;;;;2.10;0.70;;;;;;;;;;5045905;28;20084;-78
2023/10/22 01:57:16;;;;;;;0.85;0.40;;;;;;;;;;5048816;28;20088;-78
2023/10/22 01:59:42;;;;;;;0.40;0.40;;;;;;;;;;5016142;28;20405;-81
2023/10/22 02:02:07;;;;;;;0.98;0.43;;;;;;;;;;5013634;28;20029;-80
2023/10/22 02:04:33;;;;;;;0.90;0.47;;;;;;;;;;5032493;28;20041;-79
2023/10/22 02:06:58;;;;;;;0.30;0.30;;;;;;;;;;5016325;28;20342;-80
2023/10/22 02:09:24;;;;;;;2.88;0.55;;;;;;;;;;5031920;28;20029;-80
2023/10/22 02:11:50;;;;;;;0.82;0.82;;;;;;;;;;5033051;28;20163;-80
2023/10/22 02:14:15;;;;;;;0.40;0.40;;;;;;;;;;5031155;28;20121;-80
2023/10/22 02:16:41;;;;;;;0.32;0.32;;;;;;;;;;5025548;28;20474;-78
2023/10/22 02:19:06;;;;;;;1.35;0.60;;;;;;;;;;5047978;28;20029;-78
2023/10/22 02:21:32;;;;;;;0.55;0.40;;;;;;;;;;5053491;28;20029;-78
2023/10/22 02:23:57;;;;;;;0.57;0.50;;;;;;;;;;5052752;28;20020;-78
2023/10/22 02:26:23;;;;;;;0.28;0.28;;;;;;;;;;5044138;28;20064;-81
2023/10/22 02:28:48;;;;;;;0.40;0.40;;;;;;;;;;5030665;28;20086;-79
2023/10/22 02:31:14;;;;;;;3.40;0.50;;;;;;;;;;5026350;28;20041;-79
2023/10/22 02:33:39;;;;;;;0.63;0.63;;;;;;;;;;5013420;28;20040;-79
2023/10/22 02:36:06;;;;;;;0.40;0.40;;;;;;;;;;5028969;28;20018;-79
2023/10/22 02:38:33;;;;;;;0.80;0.63;;;;;;;;;;5041942;28;20523;-79
2023/10/22 02:40:59;;;;;;;0.75;0.47;;;;;;;;;;5050078;28;20123;-80
2023/10/22 02:43:24;;;;;;;2.60;0.60;;;;;;;;;;5043890;28;20033;-80
2023/10/22 02:45:53;;;;;;;0.85;0.60;;;;;;;;;;5045936;28;20041;-79
2023/10/22 02:48:19;;;;;;;4.75;0.40;;;;;;;;;;5048298;28;20032;-79
2023/10/22 02:50:45;;;;;;;2.15;0.40;;;;;;;;;;5050202;28;20079;-78
2023/10/22 02:53:10;;;;;;;0.63;0.55;;;;;;;;;;5050776;28;20550;-78
2023/10/22 02:55:35;;;;;;;0.50;0.50;;;;;;;;;;5042160;28;20038;-80
2023/10/22 02:58:01;;;;;;;0.50;0.50;;;;;;;;;;5032161;28;20072;-79
2023/10/22 03:00:26;;;;;;;0.50;0.50;;;;;;;;;;5029896;28;20250;-79
2023/10/22 03:02:52;;;;;;;0.45;0.40;;;;;;;;;;5027372;28;20021;-78
2023/10/22 03:05:17;;;;;;;0.75;0.52;;;;;;;;;;5034041;28;20358;-78
2023/10/22 03:07:42;;;;;;;0.30;0.30;;;;;;;;;;5042528;28;20052;-77
2023/10/22 03:10:09;;;;;;;1.85;0.40;;;;;;;;;;5043540;28;20081;-80
2023/10/22 03:12:35;;;;;;;0.65;0.40;;;;;;;;;;5039406;28;20130;-79
2023/10/22 03:15:00;;;;;;;0.68;0.50;;;;;;;;;;5045405;28;20013;-79
2023/10/22 03:17:26;;;;;;;0.50;0.50;;;;;;;;;;5045029;28;20048;-79
2023/10/22 03:19:51;;;;;;;3.30;0.65;;;;;;;;;;5043084;28;20037;-78
2023/10/22 03:22:18;;;;;;;0.40;0.40;;;;;;;;;;5046286;28;20128;-79
2023/10/22 03:24:48;;;;;;;0.43;0.40;;;;;;;;;;5043838;28;20493;-79
2023/10/22 03:27:14;;;;;;;0.85;0.55;;;;;;;;;;5044658;28;20082;-78
2023/10/22 03:29:39;;;;;;;2.20;0.45;;;;;;;;;;5047081;28;20557;-78
2023/10/22 03:32:05;;;;;;;0.93;0.47;;;;;;;;;;5044760;28;20207;-80
2023/10/22 03:34:30;;;;;;;0.50;0.50;;;;;;;;;;5045938;28;20051;-79
2023/10/22 03:36:55;;;;;;;0.47;0.32;;;;;;;;;;5043116;28;20021;-78
2023/10/22 03:39:21;;;;;;;1.48;0.50;;;;;;;;;;5033019;28;20040;-79
2023/10/22 03:41:46;;;;;;;0.32;0.32;;;;;;;;;;5027641;28;20474;-78
2023/10/22 03:44:12;;;;;;;0.30;0.30;;;;;;;;;;5028749;28;20033;-78
2023/10/22 03:46:38;;;;;;;0.40;0.40;;;;;;;;;;5024645;28;20061;-79
2023/10/22 03:49:03;;;;;;;2.75;0.50;;;;;;;;;;5030852;28;20029;-78
2023/10/22 03:51:28;;;;;;;0.80;0.40;;;;;;;;;;5031857;28;20036;-79
2023/10/22 03:53:56;;;;;;;0.50;0.50;;;;;;;;;;5042973;28;20342;-77
2023/10/22 03:56:22;;;;;;;3.08;0.60;;;;;;;;;;5045146;28;20037;-78
2023/10/22 03:58:47;;;;;;;0.50;0.50;;;;;;;;;;5041271;28;20087;-78
2023/10/22 04:01:12;;;;;;;0.40;0.40;;;;;;;;;;5027573;28;20033;-77
2023/10/22 04:03:37;;;;;;;0.40;0.40;;;;;;;;;;5039679;28;20025;-78
2023/10/22 04:06:03;;;;;;;0.52;0.52;;;;;;;;;;5048141;28;20029;-76
2023/10/22 04:08:29;;;;;;;0.40;0.40;;;;;;;;;;5047081;28;20469;-78
2023/10/22 04:10:54;;;;;;;1.95;0.40;;;;;;;;;;5038715;28;20132;-79
2023/10/22 04:13:20;;;;;;;0.40;0.40;;;;;;;;;;5037296;28;20064;-79
2023/10/22 04:15:48;;;;;;;0.45;0.45;;;;;;;;;;5041417;28;20543;-78
2023/10/22 04:18:13;;;;;;;0.65;0.50;;;;;;;;;;5040887;28;20094;-78
2023/10/22 04:20:39;;;;;;;0.85;0.60;;;;;;;;;;5025640;28;20017;-79
2023/10/22 04:23:04;;;;;;;0.40;0.40;;;;;;;;;;5040727;28;20029;-79
2023/10/22 04:25:35;;;;;;;0.35;0.35;;;;;;;;;;5040549;28;20033;-78
2023/10/22 04:28:00;;;;;;;0.50;0.50;;;;;;;;;;5025411;28;20036;-79
2023/10/22 04:30:25;;;;;;;0.82;0.82;;;;;;;;;;5045455;28;20401;-78
2023/10/22 04:32:50;;;;;;;0.38;0.35;;;;;;;;;;5046180;28;20025;-78
2023/10/22 04:35:16;;;;;;;0.40;0.40;;;;;;;;;;5043276;28;20024;-79
2023/10/22 04:37:42;;;;;;;0.30;0.30;;;;;;;;;;5034856;28;20038;-78
2023/10/22 04:40:07;;;;;;;0.30;0.30;;;;;;;;;;5028893;28;20033;-78
2023/10/22 04:42:33;;;;;;;0.40;0.40;;;;;;;;;;5030096;28;20712;-77
2023/10/22 04:44:58;;;;;;;0.43;0.43;;;;;;;;;;5025957;28;20033;-78
2023/10/22 04:47:23;;;;;;;0.30;0.30;;;;;;;;;;5028301;28;20070;-77
2023/10/22 04:49:51;;;;;;;0.98;0.50;;;;;;;;;;5044083;28;20032;-79
2023/10/22 04:52:50;;;;;;;0.50;0.50;;;;;;;;;;5043503;28;20555;-79
2023/10/22 04:55:11;;;;;;;1.23;0.40;;;;;;;;;;5038077;28;20392;-78
2023/10/22 04:57:36;;;;;;;1.50;0.43;;;;;;;;;;5045206;28;20057;-77
2023/10/22 05:00:02;;;;;;;0.90;0.50;;;;;;;;;;5047128;28;20106;-78
2023/10/22 05:02:28;;;;;;;0.50;0.40;;;;;;;;;;5044423;28;20616;-78
2023/10/22 05:04:53;;;;;;;0.40;0.40;;;;;;;;;;5048082;28;20131;-77
2023/10/22 05:07:18;;;;;;;0.30;0.30;;;;;;;;;;5054673;28;20144;-80
2023/10/22 05:09:44;;;;;;;2.08;0.52;;;;;;;;;;5054947;28;20041;-80
2023/10/22 05:12:09;;;;;;;5.85;0.50;;;;;;;;;;5054322;28;20025;-81
2023/10/22 05:14:35;;;;;;;1.02;0.60;;;;;;;;;;5054966;28;20058;-79
2023/10/22 05:17:00;;;;;;;0.45;0.45;;;;;;;;;;5054283;28;20043;-79
2023/10/22 05:19:26;;;;;;;0.50;0.50;;;;;;;;;;5054548;28;20133;-81
2023/10/22 05:21:51;;;;;;;2.13;0.60;;;;;;;;;;5054204;28;20033;-80
2023/10/22 05:24:17;;;;;;;0.40;0.40;;;;;;;;;;5053881;28;20020;-80
2023/10/22 05:26:42;;;;;;;0.45;0.45;;;;;;;;;;5054214;28;20055;-81
2023/10/22 05:29:08;;;;;;;0.45;0.43;;;;;;;;;;5052883;28;20033;-79
2023/10/22 05:31:33;;;;;;;2.00;0.57;;;;;;;;;;5053096;28;20076;-80
2023/10/22 05:33:58;;;;;;;0.40;0.40;;;;;;;;;;5053124;28;20063;-80
2023/10/22 05:36:24;;;;;;;0.30;0.30;;;;;;;;;;5054111;28;20032;-80
2023/10/22 05:38:50;;;;;;;0.32;0.32;;;;;;;;;;5054365;28;20025;-79
2023/10/22 05:41:23;;;;;;;1.17;0.45;;;;;;;;;;5034528;28;20428;-80
2023/10/22 05:43:56;;;;;;;0.47;0.47;;;;;;;;;;5053220;28;20409;-78
2023/10/22 05:46:22;;;;;;;0.70;0.70;;;;;;;;;;5053886;28;20091;-78
2023/10/22 05:48:48;;;;;;;0.52;0.43;;;;;;;;;;5053797;28;20032;-80
2023/10/22 05:51:13;;;;;;;0.40;0.40;;;;;;;;;;5051628;28;20025;-80
2023/10/22 05:53:38;;;;;;;0.68;0.50;;;;;;;;;;5050411;28;20024;-80
2023/10/22 05:56:04;;;;;;;0.40;0.40;;;;;;;;;;5045925;28;20114;-80
2023/10/22 05:58:29;;;;;;;0.38;0.38;;;;;;;;;;5052733;28;20044;-81
2023/10/22 06:00:55;;;;;;;1.10;0.50;;;;;;;;;;5052929;28;20062;-79
2023/10/22 06:03:21;;;;;;;1.35;0.60;;;;;;;;;;5052648;28;20033;-80
2023/10/22 06:05:47;;;;;;;0.40;0.40;;;;;;;;;;5053340;28;20055;-79
2023/10/22 06:08:12;;;;;;;2.05;0.60;;;;;;;;;;5051114;28;20044;-80
2023/10/22 06:10:42;;;;;;;0.40;0.40;;;;;;;;;;5050618;28;20037;-80
2023/10/22 06:13:07;;;;;;;0.52;0.52;;;;;;;;;;5051977;28;20416;-78
2023/10/22 06:15:36;;;;;;;0.47;0.45;;;;;;;;;;5052471;28;20033;-79
2023/10/22 06:18:02;;;;;;;0.40;0.40;;;;;;;;;;5053999;28;20082;-79
2023/10/22 06:20:32;;;;;;;0.50;0.50;;;;;;;;;;5053620;28;20095;-76
2023/10/22 06:22:57;;;;;;;0.52;0.40;;;;;;;;;;5053098;28;20121;-79
2023/10/22 06:25:23;;;;;;;0.50;0.50;;;;;;;;;;5052262;28;20358;-80
2023/10/22 06:27:49;;;;;;;0.52;0.52;;;;;;;;;;5054531;28;20061;-79
2023/10/22 06:30:14;;;;;;;0.75;0.50;;;;;;;;;;5055806;28;20033;-78
2023/10/22 06:32:39;;;;;;;0.40;0.40;;;;;;;;;;5054566;28;20025;-80
2023/10/22 06:35:07;;;;;;;2.78;0.85;;;;;;;;;;5055923;28;20060;-80
2023/10/22 06:37:32;;;;;;;1.40;0.50;;;;;;;;;;5054083;28;20037;-80
2023/10/22 06:39:58;;;;;;;1.17;0.40;;;;;;;;;;5055737;28;20055;-80
2023/10/22 06:42:26;;;;;;;0.50;0.50;;;;;;;;;;5055711;28;20033;-80
2023/10/22 06:44:51;;;;;;;2.28;0.50;;;;;;;;;;5056473;28;20021;-78
2023/10/22 06:47:16;;;;;;;0.40;0.40;;;;;;;;;;5056099;28;20036;-81
2023/10/22 06:49:42;;;;;;;0.35;0.35;;;;;;;;;;5056459;28;20071;-80
2023/10/22 06:52:07;;;;;;;0.50;0.50;;;;;;;;;;5056702;28;20112;-80
2023/10/22 06:54:32;;;;;;;0.30;0.30;;;;;;;;;;5050068;28;20041;-79
2023/10/22 06:56:59;;;;;;;0.50;0.50;;;;;;;;;;5036366;28;20022;-79
2023/10/22 06:59:24;;;;;;;0.52;0.52;;;;;;;;;;5037489;28;20037;-79
2023/10/22 07:01:50;;;;;;;0.30;0.30;;;;;;;;;;5036655;28;20563;-79
2023/10/22 07:04:15;;;;;;;2.67;0.43;;;;;;;;;;5036659;28;20034;-79
2023/10/22 07:06:40;;;;;;;0.82;0.60;;;;;;;;;;5036015;28;20033;-79
2023/10/22 07:09:06;;;;;;;1.55;0.63;;;;;;;;;;5057214;28;20027;-79
2023/10/22 07:11:33;;;;;;;1.13;0.43;;;;;;;;;;5057805;28;20112;-79
2023/10/22 07:13:59;;;;;;;0.50;0.50;;;;;;;;;;5017913;28;20033;-77
2023/10/22 07:16:24;;;;;;;0.60;0.45;;;;;;;;;;5017289;28;20057;-79
2023/10/22 07:18:50;;;;;;;0.45;0.45;;;;;;;;;;5017676;28;20030;-79
2023/10/22 07:21:15;;;;;;;1.55;0.75;;;;;;;;;;5017802;28;20033;-77
2023/10/22 07:23:40;;;;;;;0.52;0.52;;;;;;;;;;5017527;28;20021;-81
2023/10/22 07:26:06;;;;;;;0.77;0.73;;;;;;;;;;5015724;28;20048;-79
2023/10/22 07:28:31;;;;;;;1.38;0.70;;;;;;;;;;5030361;28;20057;-79
2023/10/22 07:30:56;;;;;;;0.75;0.60;;;;;;;;;;5054730;28;20037;-79
2023/10/22 07:33:24;;;;;;;1.27;0.50;;;;;;;;;;5054203;28;20378;-78
2023/10/22 07:36:00;;;;;;;0.85;0.57;;;;;;;;;;5055193;28;20051;-79
2023/10/22 07:38:29;;;;;;;1.48;0.65;;;;;;;;;;5038843;28;20237;-80
2023/10/22 07:40:58;;;;;;;0.65;0.65;;;;;;;;;;5034769;28;20132;-80
2023/10/22 07:43:25;;;;;;;2.60;0.50;;;;;;;;;;5035028;28;20053;-79
2023/10/22 07:45:50;;;;;;;0.68;0.68;;;;;;;;;;5034801;28;20037;-80
2023/10/22 07:48:16;;;;;;;0.60;0.60;;;;;;;;;;5032444;28;20496;-79
2023/10/22 07:50:41;;;;;;;0.75;0.45;;;;;;;;;;5032825;28;20029;-79
2023/10/22 07:53:07;;;;;;;0.52;0.52;;;;;;;;;;5031824;28;20050;-80
2023/10/22 07:55:33;;;;;;;1.55;0.52;;;;;;;;;;5034394;28;20030;-79
2023/10/22 07:57:59;;;;;;;1.95;0.80;;;;;;;;;;5035586;28;20105;-79
2023/10/22 08:00:25;;;;;;;1.42;0.65;;;;;;;;;;5035591;28;20041;-77
2023/10/22 08:02:51;;;;;;;1.63;0.65;;;;;;;;;;5049721;28;20017;-77
2023/10/22 08:05:16;;;;;;;0.40;0.40;;;;;;;;;;5056140;28;20446;-78
2023/10/22 08:07:41;;;;;;;0.88;0.88;;;;;;;;;;5056428;28;20354;-80
2023/10/22 08:10:07;;;;;;;3.20;0.60;;;;;;;;;;5054173;28;20021;-76
2023/10/22 08:12:32;;;;;;;0.70;0.70;;;;;;;;;;5054989;28;20071;-80
2023/10/22 08:14:58;;;;;;;2.53;0.55;;;;;;;;;;5037990;28;20031;-79
2023/10/22 08:17:23;;;;;;;1.10;0.73;;;;;;;;;;5055058;28;20120;-78
2023/10/22 08:19:48;;;;;;;0.95;0.60;;;;;;;;;;5053946;28;20033;-77
2023/10/22 08:22:13;;;;;;;3.28;0.80;;;;;;;;;;5054109;28;20032;-76
2023/10/22 08:24:39;;;;;;;2.80;0.80;;;;;;;;;;5053828;28;20037;-80
2023/10/22 08:27:04;;;;;;;4.97;0.50;;;;;;;;;;5053863;28;20488;-78
2023/10/22 08:29:29;;;;;;;0.40;0.40;;;;;;;;;;5055236;28;20028;-78
2023/10/22 08:31:55;;;;;;;0.93;0.50;;;;;;;;;;5042198;28;20087;-81
2023/10/22 08:34:21;;;;;;;1.98;0.60;;;;;;;;;;5034331;28;20164;-79
2023/10/22 08:36:46;;;;;;;0.70;0.70;;;;;;;;;;5016062;28;20490;-80
2023/10/22 08:39:11;;;;;;;2.15;0.80;;;;;;;;;;5034652;28;20035;-78
2023/10/22 08:41:41;;;;;;;2.03;0.70;;;;;;;;;;5035489;28;20021;-78
2023/10/22 08:44:06;;;;;;;1.17;0.77;;;;;;;;;;5017891;28;20040;-79
2023/10/22 08:46:34;;;;;;;1.00;0.80;;;;;;;;;;5035233;28;20038;-79
2023/10/22 08:49:04;;;;;;;0.60;0.60;;;;;;;;;;5034276;28;20093;-79
2023/10/22 08:51:30;;;;;;;0.65;0.65;;;;;;;;;;5021551;28;20041;-79
2023/10/22 08:53:55;;;;;;;0.70;0.70;;;;;;;;;;5054923;28;20020;-78
2023/10/22 08:56:21;;;;;;;1.15;0.70;;;;;;;;;;5054929;28;20029;-81
2023/10/22 08:58:46;;;;;;;1.80;0.70;;;;;;;;;;5053705;28;20033;-80
2023/10/22 09:01:12;;;;;;;1.88;0.93;;;;;;;;;;5052897;28;20100;-77
2023/10/22 09:03:37;;;;;;;1.02;0.70;;;;;;;;;;5054695;28;20037;-79
2023/10/22 09:06:05;;;;;;;4.20;1.00;;;;;;;;;;5054953;28;20082;-78
2023/10/22 09:08:45;;;;;;;2.20;0.80;;;;;;;;;;5053634;28;20045;-78
2023/10/22 09:11:14;;;;;;;1.27;0.68;;;;;;;;;;5054234;28;20029;-78
2023/10/22 09:13:39;;;;;;;0.98;0.88;;;;;;;;;;5054302;28;20053;-80
2023/10/22 09:16:05;;;;;;;5.05;0.88;;;;;;;;;;5054122;28;20044;-81
2023/10/22 09:18:30;;;;;;;1.08;0.65;;;;;;;;;;5054016;28;20037;-80
2023/10/22 09:21:06;;;;;;;2.13;0.75;;;;;;;;;;5054521;28;20013;-79
2023/10/22 09:23:31;;;;;;;0.73;0.73;;;;;;;;;;5049859;28;20068;-80
2023/10/22 09:25:57;;;;;;;0.77;0.77;;;;;;;;;;5032283;28;20041;-79
2023/10/22 09:28:28;;;;;;;0.63;0.63;;;;;;;;;;5032638;28;20628;-78
2023/10/22 09:31:01;;;;;;;1.48;0.93;;;;;;;;;;5033826;28;20132;-79
2023/10/22 09:33:38;;;;;;;1.20;0.73;;;;;;;;;;5032762;28;20033;-80
2023/10/22 09:36:11;;;;;;;0.85;0.82;;;;;;;;;;5034048;28;20026;-78
2023/10/22 09:38:47;;;;;;;0.95;0.70;;;;;;;;;;5035237;28;20030;-77
2023/10/22 09:41:19;;;;;;;1.35;0.82;;;;;;;;;;5036101;28;20112;-80
2023/10/22 09:43:44;;;;;;;1.80;0.80;;;;;;;;;;5052696;28;20397;-80
2023/10/22 09:46:09;;;;;;;0.50;0.50;;;;;;;;;;5052624;28;20029;-80
2023/10/22 09:48:35;;;;;;;1.80;0.65;;;;;;;;;;5052906;28;20060;-77
2023/10/22 09:51:04;;;;;;;0.98;0.70;;;;;;;;;;5053033;28;20029;-80
2023/10/22 09:53:35;;;;;;;0.50;0.50;;;;;;;;;;5052518;28;20037;-79
2023/10/22 09:56:06;;;;;;;3.03;0.82;;;;;;;;;;5052540;28;20037;-79
2023/10/22 09:58:37;;;;;;;1.20;0.60;;;;;;;;;;5053512;28;20033;-77
2023/10/22 10:01:03;;;;;;;1.30;0.70;;;;;;;;;;5055257;28;20029;-76
2023/10/22 10:03:28;;;;;;;1.77;0.85;;;;;;;;;;5058369;28;20032;-78
2023/10/22 10:05:54;;;;;;;1.85;0.40;;;;;;;;;;5059843;28;20040;-77
2023/10/22 10:08:20;;;;;;;0.80;0.77;;;;;;;;;;5058396;28;20396;-78
2023/10/22 10:10:47;;;;;;;1.60;0.63;;;;;;;;;;5057825;28;20041;-81
2023/10/22 10:13:13;;;;;;;2.25;0.80;;;;;;;;;;5057987;28;20055;-80
2023/10/22 10:15:38;;;;;;;1.85;0.60;;;;;;;;;;5054464;28;20112;-80
2023/10/22 10:18:07;;;;;;;1.05;0.70;;;;;;;;;;5056954;28;20021;-78
2023/10/22 10:20:35;;;;;;;0.70;0.60;;;;;;;;;;5057739;28;20070;-79
2023/10/22 10:23:03;;;;;;;3.17;0.73;;;;;;;;;;5058214;28;20032;-80
2023/10/22 10:25:31;;;;;;;2.58;0.70;;;;;;;;;;5056799;28;20044;-77
2023/10/22 10:28:00;;;;;;;2.42;0.93;;;;;;;;;;5058033;28;20029;-78
2023/10/22 10:30:25;;;;;;;2.95;0.75;;;;;;;;;;5058200;28;20039;-79
2023/10/22 10:32:51;;;;;;;1.48;0.88;;;;;;;;;;5056684;28;20045;-79
2023/10/22 10:35:18;;;;;;;2.42;0.85;;;;;;;;;;5057382;28;20075;-79
2023/10/22 10:38:14;;;;;;;0.95;0.63;;;;;;;;;;5057337;28;20537;-78
2023/10/22 10:40:53;;;;;;;2.05;0.60;;;;;;;;;;5056540;28;20456;-79
2023/10/22 10:43:20;;;;;;;0.75;0.60;;;;;;;;;;5057252;28;20037;-78
2023/10/22 10:46:24;;;;;;;0.77;0.65;;;;;;;;;;5057087;28;20033;-78
2023/10/22 10:48:49;;;;;;;0.50;0.50;;;;;;;;;;5057432;28;20086;-78
2023/10/22 10:51:19;;;;;;;1.23;0.68;;;;;;;;;;5056987;28;20044;-79
2023/10/22 10:54:03;;;;;;;1.10;0.85;;;;;;;;;;5058348;28;20067;-79
2023/10/22 10:56:45;;;;;;;0.80;0.80;;;;;;;;;;5057851;28;20040;-79
2023/10/22 10:59:10;;;;;;;1.75;0.73;;;;;;;;;;5057012;28;20386;-79
2023/10/22 11:01:36;;;;;;;0.60;0.55;;;;;;;;;;5056962;28;20032;-79
2023/10/22 11:04:08;;;;;;;0.50;0.50;;;;;;;;;;5057706;28;20029;-79
2023/10/22 11:06:33;;;;;;;0.57;0.57;;;;;;;;;;5056762;28;20037;-79
2023/10/22 11:08:58;;;;;;;1.42;0.80;;;;;;;;;;5054230;28;20036;-79
2023/10/22 11:11:24;;;;;;;3.38;0.75;;;;;;;;;;5056867;28;20562;-79
2023/10/22 11:13:49;;;;;;;4.32;0.90;;;;;;;;;;5052446;28;20433;-78
2023/10/22 11:16:14;;;;;;;0.75;0.75;;;;;;;;;;5037058;28;20034;-79
2023/10/22 11:18:58;;;;;;;1.42;0.80;;;;;;;;;;5035605;28;20408;-78
2023/10/22 11:21:23;;;;;;;0.60;0.60;;;;;;;;;;5037498;28;20059;-79
2023/10/22 11:23:49;;;;;;;2.28;0.75;;;;;;;;;;5037034;28;20048;-79
2023/10/22 11:26:14;;;;;;;1.10;0.80;;;;;;;;;;5037202;28;20038;-77
2023/10/22 11:28:39;;;;;;;1.05;0.57;;;;;;;;;;5036738;28;20057;-78
2023/10/22 11:31:05;;;;;;;2.75;0.90;;;;;;;;;;5036057;28;20048;-79
2023/10/22 11:33:32;;;;;;;1.85;0.50;;;;;;;;;;5037067;28;20064;-80
2023/10/22 11:35:57;;;;;;;2.28;0.70;;;;;;;;;;5057715;23;20351;-77
2023/10/22 11:38:23;;;;;;;0.85;0.80;;;;;;;;;;5042429;28;20050;-77
2023/10/22 11:40:54;;;;;;;0.70;0.70;;;;;;;;;;5044154;28;20082;-77
2023/10/22 11:43:19;;;;;;;0.68;0.60;;;;;;;;;;5046117;28;20759;-77
2023/10/22 11:45:53;;;;;;;0.60;0.60;;;;;;;;;;5040854;28;20113;-77
2023/10/22 11:48:21;;;;;;;1.17;0.80;;;;;;;;;;5025126;28;20029;-77
2023/10/22 11:50:48;;;;;;;0.95;0.70;;;;;;;;;;5041510;28;20572;-77
2023/10/22 11:53:13;;;;;;;1.48;1.10;;;;;;;;;;5028161;28;20123;-77
2023/10/22 11:55:39;;;;;;;3.35;0.63;;;;;;;;;;5024697;28;20100;-77
2023/10/22 11:58:15;;;;;;;0.80;0.80;;;;;;;;;;5038959;28;20033;-77
2023/10/22 12:00:41;;;;;;;1.13;0.80;;;;;;;;;;5023966;28;20029;-77
2023/10/22 12:03:06;;;;;;;0.82;0.80;;;;;;;;;;5021506;28;20095;-78
2023/10/22 12:05:31;;;;;;;2.55;0.85;;;;;;;;;;5011743;28;20026;-77
2023/10/22 12:07:57;;;;;;;1.60;0.90;;;;;;;;;;5010089;28;20032;-77
2023/10/22 12:10:22;;;;;;;0.63;0.60;;;;;;;;;;5011731;28;20420;-77
2023/10/22 12:12:48;;;;;;;0.80;0.60;;;;;;;;;;5012082;28;20061;-77
2023/10/22 12:15:14;;;;;;;0.70;0.70;;;;;;;;;;5012420;28;20034;-77
2023/10/22 12:17:39;;;;;;;0.85;0.60;;;;;;;;;;5011691;28;20579;-77
2023/10/22 12:20:05;;;;;;;1.98;0.70;;;;;;;;;;5012202;28;20453;-77
2023/10/22 12:22:30;;;;;;;0.70;0.70;;;;;;;;;;5013179;28;20464;-77
2023/10/22 12:24:57;;;;;;;1.17;0.68;;;;;;;;;;5012112;28;20038;-77
2023/10/22 12:27:22;;;;;;;1.48;0.70;;;;;;;;;;5009820;28;20026;-77
2023/10/22 12:29:47;;;;;;;1.38;0.65;;;;;;;;;;5013078;28;20665;-77
2023/10/22 12:32:13;;;;;;;1.60;0.77;;;;;;;;;;5011349;28;20567;-77
2023/10/22 12:34:38;;;;;;;1.85;0.98;;;;;;;;;;5012335;28;20037;-77
2023/10/22 12:37:03;;;;;;;1.23;0.70;;;;;;;;;;5010757;28;20308;-77
2023/10/22 12:39:29;;;;;;;3.25;0.80;;;;;;;;;;5009784;28;20095;-77
2023/10/22 12:41:55;;;;;;;3.42;0.77;;;;;;;;;;5012295;28;20014;-77
2023/10/22 12:44:24;;;;;;;1.20;0.73;;;;;;;;;;5009977;28;20100;-77
2023/10/22 12:46:49;;;;;;;2.22;0.88;;;;;;;;;;5009139;28;21215;-77
2023/10/22 12:49:15;;;;;;;1.08;0.82;;;;;;;;;;5011222;28;20044;-77
2023/10/22 12:51:40;;;;;;;0.60;0.60;;;;;;;;;;5010582;28;20045;-77
2023/10/22 12:54:06;;;;;;;1.60;0.70;;;;;;;;;;5008807;28;20048;-77
2023/10/22 12:56:32;;;;;;;1.08;0.75;;;;;;;;;;5010840;28;20089;-77
2023/10/22 12:58:57;;;;;;;0.70;0.70;;;;;;;;;;5012926;28;20029;-77
2023/10/22 13:01:22;;;;;;;0.70;0.70;;;;;;;;;;5023903;28;20030;-77
2023/10/22 13:03:48;;;;;;;1.25;0.80;;;;;;;;;;5010852;28;20052;-78
2023/10/22 13:06:13;;;;;;;1.88;0.75;;;;;;;;;;5009625;28;20557;-77
2023/10/22 13:08:39;;;;;;;1.80;0.70;;;;;;;;;;5010356;28;20036;-78
2023/10/22 13:11:04;;;;;;;0.95;0.80;;;;;;;;;;5011863;28;20512;-78
2023/10/22 13:13:29;;;;;;;2.13;0.98;;;;;;;;;;5011380;28;20030;-78
2023/10/22 13:15:55;;;;;;;0.77;0.77;;;;;;;;;;5009796;28;20037;-77
2023/10/22 13:18:21;;;;;;;0.73;0.73;;;;;;;;;;5017285;28;20035;-76
2023/10/22 13:20:46;;;;;;;0.82;0.82;;;;;;;;;;5026932;28;20058;-77
2023/10/22 13:23:13;;;;;;;1.13;0.70;;;;;;;;;;5025748;28;20049;-77
2023/10/22 13:25:39;;;;;;;0.75;0.50;;;;;;;;;;5023149;28;20596;-77
2023/10/22 13:28:04;;;;;;;0.47;0.47;;;;;;;;;;5022793;28;20037;-78
2023/10/22 13:30:29;;;;;;;0.68;0.68;;;;;;;;;;5024585;28;20025;-77
2023/10/22 13:32:56;;;;;;;1.27;0.90;;;;;;;;;;5028426;28;20021;-78
2023/10/22 13:35:22;;;;;;;0.68;0.68;;;;;;;;;;5029067;28;20052;-78
2023/10/22 13:37:47;;;;;;;1.52;0.70;;;;;;;;;;5031743;28;20489;-77
2023/10/22 13:40:12;;;;;;;0.80;0.80;;;;;;;;;;5028481;28;20137;-78
2023/10/22 13:42:38;;;;;;;0.68;0.68;;;;;;;;;;5030298;28;20043;-77
2023/10/22 13:45:04;;;;;;;2.47;0.80;;;;;;;;;;5031859;28;20029;-77
2023/10/22 13:47:30;;;;;;;0.80;0.68;;;;;;;;;;5021180;28;20055;-79
2023/10/22 13:49:55;;;;;;;1.50;0.82;;;;;;;;;;5012138;28;20124;-77
2023/10/22 13:52:20;;;;;;;0.70;0.70;;;;;;;;;;5010799;28;20030;-77
2023/10/22 13:54:45;;;;;;;2.40;0.70;;;;;;;;;;5008498;28;20030;-77
2023/10/22 13:57:11;;;;;;;0.95;0.80;;;;;;;;;;5011620;28;20393;-79
2023/10/22 13:59:36;;;;;;;2.45;1.80;;;;;;;;;;5013345;28;20022;-78
2023/10/22 14:02:02;;;;;;;1.42;1.00;;;;;;;;;;5012853;28;20049;-78
2023/10/22 14:04:27;;;;;;;1.00;0.98;;;;;;;;;;5016076;28;20046;-78
2023/10/22 14:06:54;;;;;;;1.83;0.80;;;;;;;;;;5015235;28;20383;-78
2023/10/22 14:09:19;;;;;;;0.90;0.90;;;;;;;;;;5014051;28;20034;-78
2023/10/22 14:11:47;;;;;;;1.88;0.60;;;;;;;;;;5014991;28;20030;-78
2023/10/22 14:14:12;;;;;;;1.00;1.00;;;;;;;;;;5012292;28;20022;-78
2023/10/22 14:16:37;;;;;;;2.17;1.02;;;;;;;;;;5012435;28;20034;-78
2023/10/22 14:19:03;;;;;;;1.15;0.70;;;;;;;;;;5016733;28;20567;-78
2023/10/22 14:21:28;;;;;;;2.97;0.90;;;;;;;;;;5012925;28;20173;-78
2023/10/22 14:23:53;;;;;;;4.00;2.08;;;;;;;;;;5016732;28;20080;-78
2023/10/22 14:26:19;;;;;;;5.72;4.20;;;;;;;;;;5013592;28;20428;-78
2023/10/22 14:28:44;;;;;;;0.82;0.82;;;;;;;;;;5015210;28;20088;-78
2023/10/22 14:31:10;;;;;;;3.30;2.50;;;;;;;;;;5013853;28;20220;-78
2023/10/22 14:33:36;;;;;;;2.20;1.30;;;;;;;;;;5011875;28;20036;-77
2023/10/22 14:36:06;;;;;;;1.17;0.82;;;;;;;;;;5014783;28;20485;-78
2023/10/22 14:38:32;;;;;;;4.05;1.25;;;;;;;;;;5011052;28;20049;-78